sensor_id;sensor_type;location;lat;lon;timestamp;P1;durP1;ratioP1;P2;durP2;ratioP2
50225;SDS011;36113;50.742;6.432;2023-06-14T00:01:09;6.43;;;5.70;;
50225;SDS011;36113;50.742;6.432;2023-06-14T00:03:35;7.13;;;6.43;;
50225;SDS011;36113;50.742;6.432;2023-06-14T00:06:00;6.77;;;6.13;;
50225;SDS011;36113;50.742;6.432;2023-06-14T00:08:25;8.97;;;6.37;;
50225;SDS011;36113;50.742;6.432;2023-06-14T00:10:50;7.37;;;6.67;;
50225;SDS011;36113;50.742;6.432;2023-06-14T00:13:16;7.33;;;6.63;;
50225;SDS011;36113;50.742;6.432;2023-06-14T00:15:41;9.33;;;6.80;;
50225;SDS011;36113;50.742;6.432;2023-06-14T00:18:07;7.22;;;6.50;;
50225;SDS011;36113;50.742;6.432;2023-06-14T00:20:34;7.47;;;6.70;;
50225;SDS011;36113;50.742;6.432;2023-06-14T00:23:00;7.07;;;6.37;;
50225;SDS011;36113;50.742;6.432;2023-06-14T00:25:26;7.17;;;6.53;;
50225;SDS011;36113;50.742;6.432;2023-06-14T00:27:52;6.93;;;6.27;;
50225;SDS011;36113;50.742;6.432;2023-06-14T00:30:18;7.32;;;6.63;;
50225;SDS011;36113;50.742;6.432;2023-06-14T00:32:44;7.20;;;6.50;;
50225;SDS011;36113;50.742;6.432;2023-06-14T00:35:10;6.97;;;6.43;;
50225;SDS011;36113;50.742;6.432;2023-06-14T00:37:36;7.30;;;6.45;;
50225;SDS011;36113;50.742;6.432;2023-06-14T00:40:02;6.77;;;6.33;;
50225;SDS011;36113;50.742;6.432;2023-06-14T00:42:29;7.05;;;6.47;;
50225;SDS011;36113;50.742;6.432;2023-06-14T00:44:54;6.67;;;6.17;;
50225;SDS011;36113;50.742;6.432;2023-06-14T00:47:20;7.30;;;6.63;;
50225;SDS011;36113;50.742;6.432;2023-06-14T00:49:49;8.47;;;6.30;;
50225;SDS011;36113;50.742;6.432;2023-06-14T00:52:18;6.70;;;6.20;;
50225;SDS011;36113;50.742;6.432;2023-06-14T00:54:44;7.13;;;6.57;;
50225;SDS011;36113;50.742;6.432;2023-06-14T00:57:10;7.40;;;6.70;;
50225;SDS011;36113;50.742;6.432;2023-06-14T00:59:46;7.10;;;5.97;;
50225;SDS011;36113;50.742;6.432;2023-06-14T01:02:13;7.65;;;6.43;;
50225;SDS011;36113;50.742;6.432;2023-06-14T01:04:43;6.72;;;6.05;;
50225;SDS011;36113;50.742;6.432;2023-06-14T01:12:35;7.25;;;6.65;;
50225;SDS011;36113;50.742;6.432;2023-06-14T01:15:06;7.53;;;6.78;;
50225;SDS011;36113;50.742;6.432;2023-06-14T01:17:32;7.87;;;6.63;;
50225;SDS011;36113;50.742;6.432;2023-06-14T01:20:00;10.60;;;7.07;;
50225;SDS011;36113;50.742;6.432;2023-06-14T01:22:27;7.82;;;6.80;;
50225;SDS011;36113;50.742;6.432;2023-06-14T01:24:53;6.97;;;6.47;;
50225;SDS011;36113;50.742;6.432;2023-06-14T01:27:21;6.55;;;5.95;;
50225;SDS011;36113;50.742;6.432;2023-06-14T01:29:49;7.07;;;6.55;;
50225;SDS011;36113;50.742;6.432;2023-06-14T01:32:16;7.78;;;6.97;;
50225;SDS011;36113;50.742;6.432;2023-06-14T01:34:43;8.35;;;7.50;;
50225;SDS011;36113;50.742;6.432;2023-06-14T01:37:08;7.20;;;6.57;;
50225;SDS011;36113;50.742;6.432;2023-06-14T01:39:36;7.55;;;6.78;;
50225;SDS011;36113;50.742;6.432;2023-06-14T01:42:02;8.13;;;6.57;;
50225;SDS011;36113;50.742;6.432;2023-06-14T01:44:28;7.60;;;7.00;;
50225;SDS011;36113;50.742;6.432;2023-06-14T01:49:20;9.77;;;6.43;;
50225;SDS011;36113;50.742;6.432;2023-06-14T01:51:46;7.20;;;6.60;;
50225;SDS011;36113;50.742;6.432;2023-06-14T01:54:11;8.67;;;6.23;;
50225;SDS011;36113;50.742;6.432;2023-06-14T01:56:36;9.37;;;6.40;;
50225;SDS011;36113;50.742;6.432;2023-06-14T01:59:02;6.53;;;5.93;;
50225;SDS011;36113;50.742;6.432;2023-06-14T02:01:27;10.20;;;6.77;;
50225;SDS011;36113;50.742;6.432;2023-06-14T02:03:53;7.07;;;6.37;;
50225;SDS011;36113;50.742;6.432;2023-06-14T02:06:18;8.23;;;6.80;;
50225;SDS011;36113;50.742;6.432;2023-06-14T02:08:44;7.13;;;6.43;;
50225;SDS011;36113;50.742;6.432;2023-06-14T02:11:09;6.63;;;6.13;;
50225;SDS011;36113;50.742;6.432;2023-06-14T02:13:35;13.77;;;7.17;;
50225;SDS011;36113;50.742;6.432;2023-06-14T02:16:00;7.27;;;6.67;;
50225;SDS011;36113;50.742;6.432;2023-06-14T02:18:26;8.57;;;6.93;;
50225;SDS011;36113;50.742;6.432;2023-06-14T02:20:52;7.13;;;6.53;;
50225;SDS011;36113;50.742;6.432;2023-06-14T02:23:17;14.30;;;6.90;;
50225;SDS011;36113;50.742;6.432;2023-06-14T02:25:43;7.93;;;7.33;;
50225;SDS011;36113;50.742;6.432;2023-06-14T02:30:35;8.02;;;6.85;;
50225;SDS011;36113;50.742;6.432;2023-06-14T02:33:00;13.63;;;8.10;;
50225;SDS011;36113;50.742;6.432;2023-06-14T02:35:25;9.90;;;7.10;;
50225;SDS011;36113;50.742;6.432;2023-06-14T02:37:52;8.27;;;7.40;;
50225;SDS011;36113;50.742;6.432;2023-06-14T02:40:18;8.10;;;7.05;;
50225;SDS011;36113;50.742;6.432;2023-06-14T02:42:44;7.57;;;6.78;;
50225;SDS011;36113;50.742;6.432;2023-06-14T02:45:09;11.07;;;7.63;;
50225;SDS011;36113;50.742;6.432;2023-06-14T02:47:35;8.50;;;7.17;;
50225;SDS011;36113;50.742;6.432;2023-06-14T02:50:00;10.33;;;7.03;;
50225;SDS011;36113;50.742;6.432;2023-06-14T02:52:26;7.67;;;6.97;;
50225;SDS011;36113;50.742;6.432;2023-06-14T02:54:51;8.10;;;7.30;;
50225;SDS011;36113;50.742;6.432;2023-06-14T02:57:17;9.10;;;7.40;;
50225;SDS011;36113;50.742;6.432;2023-06-14T02:59:42;8.47;;;7.00;;
50225;SDS011;36113;50.742;6.432;2023-06-14T03:02:07;8.40;;;7.63;;
50225;SDS011;36113;50.742;6.432;2023-06-14T03:04:32;10.43;;;7.47;;
50225;SDS011;36113;50.742;6.432;2023-06-14T03:07:02;7.85;;;7.07;;
50225;SDS011;36113;50.742;6.432;2023-06-14T03:09:34;14.18;;;6.70;;
50225;SDS011;36113;50.742;6.432;2023-06-14T03:12:00;9.30;;;6.20;;
50225;SDS011;36113;50.742;6.432;2023-06-14T03:14:25;7.50;;;6.80;;
50225;SDS011;36113;50.742;6.432;2023-06-14T03:16:50;7.00;;;6.40;;
50225;SDS011;36113;50.742;6.432;2023-06-14T03:19:16;6.73;;;6.10;;
50225;SDS011;36113;50.742;6.432;2023-06-14T03:21:41;7.67;;;7.00;;
50225;SDS011;36113;50.742;6.432;2023-06-14T03:24:09;7.55;;;6.80;;
50225;SDS011;36113;50.742;6.432;2023-06-14T03:26:34;9.70;;;6.93;;
50225;SDS011;36113;50.742;6.432;2023-06-14T03:29:02;7.38;;;6.68;;
50225;SDS011;36113;50.742;6.432;2023-06-14T03:31:28;6.87;;;6.20;;
50225;SDS011;36113;50.742;6.432;2023-06-14T03:33:57;8.55;;;7.32;;
50225;SDS011;36113;50.742;6.432;2023-06-14T03:36:23;8.43;;;6.17;;
50225;SDS011;36113;50.742;6.432;2023-06-14T03:38:48;6.87;;;6.37;;
50225;SDS011;36113;50.742;6.432;2023-06-14T03:41:13;8.00;;;6.57;;
50225;SDS011;36113;50.742;6.432;2023-06-14T03:43:39;7.10;;;6.40;;
50225;SDS011;36113;50.742;6.432;2023-06-14T03:46:04;7.43;;;6.80;;
50225;SDS011;36113;50.742;6.432;2023-06-14T03:48:29;7.70;;;7.10;;
50225;SDS011;36113;50.742;6.432;2023-06-14T03:50:55;7.43;;;6.83;;
50225;SDS011;36113;50.742;6.432;2023-06-14T03:53:21;9.67;;;6.00;;
50225;SDS011;36113;50.742;6.432;2023-06-14T03:55:48;7.55;;;6.85;;
50225;SDS011;36113;50.742;6.432;2023-06-14T03:58:15;7.45;;;6.65;;
50225;SDS011;36113;50.742;6.432;2023-06-14T04:00:40;7.57;;;6.75;;
50225;SDS011;36113;50.742;6.432;2023-06-14T04:03:06;7.07;;;6.47;;
50225;SDS011;36113;50.742;6.432;2023-06-14T04:05:31;7.17;;;6.57;;
50225;SDS011;36113;50.742;6.432;2023-06-14T04:07:57;7.27;;;6.67;;
50225;SDS011;36113;50.742;6.432;2023-06-14T04:12:49;7.22;;;6.63;;
50225;SDS011;36113;50.742;6.432;2023-06-14T04:15:15;7.53;;;6.73;;
50225;SDS011;36113;50.742;6.432;2023-06-14T04:17:40;6.60;;;6.10;;
50225;SDS011;36113;50.742;6.432;2023-06-14T04:20:06;7.47;;;6.77;;
50225;SDS011;36113;50.742;6.432;2023-06-14T04:22:33;25.63;;;12.40;;
50225;SDS011;36113;50.742;6.432;2023-06-14T04:24:59;13.35;;;9.95;;
50225;SDS011;36113;50.742;6.432;2023-06-14T04:27:28;8.67;;;7.23;;
50225;SDS011;36113;50.742;6.432;2023-06-14T04:29:55;15.95;;;8.43;;
50225;SDS011;36113;50.742;6.432;2023-06-14T04:32:28;10.67;;;6.70;;
50225;SDS011;36113;50.742;6.432;2023-06-14T04:34:58;12.63;;;11.17;;
50225;SDS011;36113;50.742;6.432;2023-06-14T04:37:26;11.13;;;9.32;;
50225;SDS011;36113;50.742;6.432;2023-06-14T04:39:53;10.18;;;7.45;;
50225;SDS011;36113;50.742;6.432;2023-06-14T04:42:20;9.00;;;7.18;;
50225;SDS011;36113;50.742;6.432;2023-06-14T04:44:50;9.68;;;8.68;;
50225;SDS011;36113;50.742;6.432;2023-06-14T04:47:16;13.00;;;9.80;;
50225;SDS011;36113;50.742;6.432;2023-06-14T04:49:42;9.77;;;8.40;;
50225;SDS011;36113;50.742;6.432;2023-06-14T04:52:08;9.03;;;7.93;;
50225;SDS011;36113;50.742;6.432;2023-06-14T04:57:03;11.80;;;7.23;;
50225;SDS011;36113;50.742;6.432;2023-06-14T04:59:29;7.93;;;6.90;;
50225;SDS011;36113;50.742;6.432;2023-06-14T05:01:58;9.93;;;7.38;;
50225;SDS011;36113;50.742;6.432;2023-06-14T05:04:23;8.20;;;7.40;;
50225;SDS011;36113;50.742;6.432;2023-06-14T05:06:50;9.27;;;7.43;;
50225;SDS011;36113;50.742;6.432;2023-06-14T05:09:16;19.77;;;7.20;;
50225;SDS011;36113;50.742;6.432;2023-06-14T05:11:44;8.27;;;7.22;;
50225;SDS011;36113;50.742;6.432;2023-06-14T05:14:13;8.30;;;7.30;;
50225;SDS011;36113;50.742;6.432;2023-06-14T05:16:39;8.38;;;7.38;;
50225;SDS011;36113;50.742;6.432;2023-06-14T05:19:05;12.45;;;7.57;;
50225;SDS011;36113;50.742;6.432;2023-06-14T05:21:30;7.70;;;6.90;;
50225;SDS011;36113;50.742;6.432;2023-06-14T05:23:58;7.95;;;7.28;;
50225;SDS011;36113;50.742;6.432;2023-06-14T05:26:24;7.73;;;7.03;;
50225;SDS011;36113;50.742;6.432;2023-06-14T05:28:53;8.48;;;7.00;;
50225;SDS011;36113;50.742;6.432;2023-06-14T05:31:21;8.27;;;7.57;;
50225;SDS011;36113;50.742;6.432;2023-06-14T05:33:47;7.47;;;6.50;;
50225;SDS011;36113;50.742;6.432;2023-06-14T05:36:13;6.47;;;5.97;;
50225;SDS011;36113;50.742;6.432;2023-06-14T05:38:38;6.53;;;5.93;;
50225;SDS011;36113;50.742;6.432;2023-06-14T05:41:04;8.80;;;7.30;;
50225;SDS011;36113;50.742;6.432;2023-06-14T05:43:29;7.97;;;7.20;;
50225;SDS011;36113;50.742;6.432;2023-06-14T05:45:54;6.03;;;5.50;;
50225;SDS011;36113;50.742;6.432;2023-06-14T05:48:19;7.43;;;6.83;;
50225;SDS011;36113;50.742;6.432;2023-06-14T05:50:45;7.43;;;6.07;;
50225;SDS011;36113;50.742;6.432;2023-06-14T05:53:10;8.67;;;6.83;;
50225;SDS011;36113;50.742;6.432;2023-06-14T05:55:36;6.83;;;6.23;;
50225;SDS011;36113;50.742;6.432;2023-06-14T05:58:01;7.60;;;6.63;;
50225;SDS011;36113;50.742;6.432;2023-06-14T06:00:27;6.43;;;5.73;;
50225;SDS011;36113;50.742;6.432;2023-06-14T06:02:52;6.87;;;6.37;;
50225;SDS011;36113;50.742;6.432;2023-06-14T06:05:18;10.03;;;5.43;;
50225;SDS011;36113;50.742;6.432;2023-06-14T06:07:43;6.47;;;5.70;;
50225;SDS011;36113;50.742;6.432;2023-06-14T06:10:11;7.13;;;6.15;;
50225;SDS011;36113;50.742;6.432;2023-06-14T06:12:36;7.00;;;5.90;;
50225;SDS011;36113;50.742;6.432;2023-06-14T06:15:02;6.17;;;5.60;;
50225;SDS011;36113;50.742;6.432;2023-06-14T06:17:28;6.20;;;5.63;;
50225;SDS011;36113;50.742;6.432;2023-06-14T06:19:53;7.67;;;5.57;;
50225;SDS011;36113;50.742;6.432;2023-06-14T06:22:19;7.63;;;5.53;;
50225;SDS011;36113;50.742;6.432;2023-06-14T06:24:44;6.57;;;5.97;;
50225;SDS011;36113;50.742;6.432;2023-06-14T06:27:09;6.13;;;5.63;;
50225;SDS011;36113;50.742;6.432;2023-06-14T06:29:35;7.07;;;5.13;;
50225;SDS011;36113;50.742;6.432;2023-06-14T06:32:01;6.00;;;5.47;;
50225;SDS011;36113;50.742;6.432;2023-06-14T06:34:27;8.27;;;6.07;;
50225;SDS011;36113;50.742;6.432;2023-06-14T06:36:52;8.53;;;5.23;;
50225;SDS011;36113;50.742;6.432;2023-06-14T06:39:18;10.00;;;5.57;;
50225;SDS011;36113;50.742;6.432;2023-06-14T06:41:43;6.20;;;5.70;;
50225;SDS011;36113;50.742;6.432;2023-06-14T06:44:08;6.07;;;5.47;;
50225;SDS011;36113;50.742;6.432;2023-06-14T06:46:35;6.43;;;5.43;;
50225;SDS011;36113;50.742;6.432;2023-06-14T06:49:05;8.90;;;5.45;;
50225;SDS011;36113;50.742;6.432;2023-06-14T06:51:31;5.47;;;4.85;;
50225;SDS011;36113;50.742;6.432;2023-06-14T06:53:56;5.20;;;4.70;;
50225;SDS011;36113;50.742;6.432;2023-06-14T06:56:21;5.30;;;4.87;;
50225;SDS011;36113;50.742;6.432;2023-06-14T06:58:50;7.40;;;5.05;;
50225;SDS011;36113;50.742;6.432;2023-06-14T07:01:16;6.20;;;5.20;;
50225;SDS011;36113;50.742;6.432;2023-06-14T07:03:42;5.68;;;5.15;;
50225;SDS011;36113;50.742;6.432;2023-06-14T07:06:08;5.78;;;5.28;;
50225;SDS011;36113;50.742;6.432;2023-06-14T07:08:33;7.40;;;6.10;;
50225;SDS011;36113;50.742;6.432;2023-06-14T07:10:59;9.17;;;6.03;;
50225;SDS011;36113;50.742;6.432;2023-06-14T07:13:24;9.60;;;5.77;;
50225;SDS011;36113;50.742;6.432;2023-06-14T07:15:50;9.33;;;5.43;;
50225;SDS011;36113;50.742;6.432;2023-06-14T07:18:18;6.30;;;5.68;;
50225;SDS011;36113;50.742;6.432;2023-06-14T07:20:43;9.63;;;5.63;;
50225;SDS011;36113;50.742;6.432;2023-06-14T07:23:08;8.90;;;5.30;;
50225;SDS011;36113;50.742;6.432;2023-06-14T07:25:34;6.63;;;5.30;;
50225;SDS011;36113;50.742;6.432;2023-06-14T07:27:59;7.00;;;5.47;;
50225;SDS011;36113;50.742;6.432;2023-06-14T07:30:25;5.10;;;4.70;;
50225;SDS011;36113;50.742;6.432;2023-06-14T07:32:52;12.63;;;4.70;;
50225;SDS011;36113;50.742;6.432;2023-06-14T07:35:18;10.30;;;5.13;;
50225;SDS011;36113;50.742;6.432;2023-06-14T07:37:43;6.20;;;4.80;;
50225;SDS011;36113;50.742;6.432;2023-06-14T07:40:09;4.83;;;4.43;;
50225;SDS011;36113;50.742;6.432;2023-06-14T07:42:35;6.03;;;4.65;;
50225;SDS011;36113;50.742;6.432;2023-06-14T07:45:01;10.87;;;4.30;;
50225;SDS011;36113;50.742;6.432;2023-06-14T07:47:27;5.28;;;4.78;;
50225;SDS011;36113;50.742;6.432;2023-06-14T07:49:52;4.07;;;3.73;;
50225;SDS011;36113;50.742;6.432;2023-06-14T07:52:17;6.60;;;4.40;;
50225;SDS011;36113;50.742;6.432;2023-06-14T07:54:43;7.30;;;4.20;;
50225;SDS011;36113;50.742;6.432;2023-06-14T07:57:08;11.73;;;4.20;;
50225;SDS011;36113;50.742;6.432;2023-06-14T07:59:33;7.07;;;4.10;;
50225;SDS011;36113;50.742;6.432;2023-06-14T08:01:59;4.27;;;3.87;;
50225;SDS011;36113;50.742;6.432;2023-06-14T08:04:24;5.33;;;4.23;;
50225;SDS011;36113;50.742;6.432;2023-06-14T08:06:50;7.37;;;4.80;;
50225;SDS011;36113;50.742;6.432;2023-06-14T08:09:15;6.00;;;4.77;;
50225;SDS011;36113;50.742;6.432;2023-06-14T08:11:41;9.63;;;4.00;;
50225;SDS011;36113;50.742;6.432;2023-06-14T08:14:06;8.47;;;4.37;;
50225;SDS011;36113;50.742;6.432;2023-06-14T08:16:32;11.93;;;4.00;;
50225;SDS011;36113;50.742;6.432;2023-06-14T08:18:57;4.83;;;3.97;;
50225;SDS011;36113;50.742;6.432;2023-06-14T08:21:22;11.27;;;4.23;;
50225;SDS011;36113;50.742;6.432;2023-06-14T08:23:48;6.15;;;3.67;;
50225;SDS011;36113;50.742;6.432;2023-06-14T08:26:14;5.93;;;3.93;;
50225;SDS011;36113;50.742;6.432;2023-06-14T08:28:39;9.87;;;3.50;;
50225;SDS011;36113;50.742;6.432;2023-06-14T08:31:05;5.50;;;3.00;;
50225;SDS011;36113;50.742;6.432;2023-06-14T08:33:30;6.93;;;3.20;;
50225;SDS011;36113;50.742;6.432;2023-06-14T08:35:58;5.38;;;3.20;;
50225;SDS011;36113;50.742;6.432;2023-06-14T08:38:23;4.57;;;3.43;;
50225;SDS011;36113;50.742;6.432;2023-06-14T08:40:50;3.63;;;3.07;;
50225;SDS011;36113;50.742;6.432;2023-06-14T08:43:16;5.20;;;3.13;;
50225;SDS011;36113;50.742;6.432;2023-06-14T08:45:41;4.03;;;2.93;;
50225;SDS011;36113;50.742;6.432;2023-06-14T08:48:07;5.17;;;3.93;;
50225;SDS011;36113;50.742;6.432;2023-06-14T08:50:33;4.18;;;3.78;;
50225;SDS011;36113;50.742;6.432;2023-06-14T08:53:02;5.10;;;3.00;;
50225;SDS011;36113;50.742;6.432;2023-06-14T08:55:28;4.18;;;3.05;;
50225;SDS011;36113;50.742;6.432;2023-06-14T08:57:55;4.70;;;3.10;;
50225;SDS011;36113;50.742;6.432;2023-06-14T09:00:24;3.40;;;2.55;;
50225;SDS011;36113;50.742;6.432;2023-06-14T09:02:51;2.83;;;2.47;;
50225;SDS011;36113;50.742;6.432;2023-06-14T09:05:22;5.43;;;3.40;;
50225;SDS011;36113;50.742;6.432;2023-06-14T09:10:15;5.63;;;2.83;;
50225;SDS011;36113;50.742;6.432;2023-06-14T09:12:41;5.15;;;2.75;;
50225;SDS011;36113;50.742;6.432;2023-06-14T09:15:07;3.53;;;3.08;;
50225;SDS011;36113;50.742;6.432;2023-06-14T09:20:00;3.17;;;2.63;;
50225;SDS011;36113;50.742;6.432;2023-06-14T09:22:29;2.78;;;2.58;;
50225;SDS011;36113;50.742;6.432;2023-06-14T09:24:55;6.20;;;2.80;;
50225;SDS011;36113;50.742;6.432;2023-06-14T09:27:21;3.47;;;2.50;;
50225;SDS011;36113;50.742;6.432;2023-06-14T09:29:46;2.93;;;2.73;;
50225;SDS011;36113;50.742;6.432;2023-06-14T09:32:11;4.20;;;3.40;;
50225;SDS011;36113;50.742;6.432;2023-06-14T09:34:36;6.40;;;2.47;;
50225;SDS011;36113;50.742;6.432;2023-06-14T09:37:02;7.23;;;2.97;;
50225;SDS011;36113;50.742;6.432;2023-06-14T09:39:27;5.20;;;3.00;;
50225;SDS011;36113;50.742;6.432;2023-06-14T09:41:53;3.50;;;3.30;;
50225;SDS011;36113;50.742;6.432;2023-06-14T09:44:18;6.00;;;2.80;;
50225;SDS011;36113;50.742;6.432;2023-06-14T09:46:45;6.03;;;3.00;;
50225;SDS011;36113;50.742;6.432;2023-06-14T09:49:11;5.78;;;2.80;;
50225;SDS011;36113;50.742;6.432;2023-06-14T09:51:42;4.33;;;2.53;;
50225;SDS011;36113;50.742;6.432;2023-06-14T09:54:11;3.00;;;2.80;;
50225;SDS011;36113;50.742;6.432;2023-06-14T09:56:41;6.82;;;2.45;;
50225;SDS011;36113;50.742;6.432;2023-06-14T09:59:09;6.05;;;2.65;;
50225;SDS011;36113;50.742;6.432;2023-06-14T10:01:35;2.17;;;2.03;;
50225;SDS011;36113;50.742;6.432;2023-06-14T10:04:07;4.03;;;2.75;;
50225;SDS011;36113;50.742;6.432;2023-06-14T10:06:45;6.30;;;2.65;;
50225;SDS011;36113;50.742;6.432;2023-06-14T10:09:11;3.33;;;2.63;;
50225;SDS011;36113;50.742;6.432;2023-06-14T10:11:37;2.70;;;2.60;;
50225;SDS011;36113;50.742;6.432;2023-06-14T10:14:08;7.00;;;2.92;;
50225;SDS011;36113;50.742;6.432;2023-06-14T10:16:37;2.63;;;2.42;;
50225;SDS011;36113;50.742;6.432;2023-06-14T10:19:15;2.88;;;2.20;;
50225;SDS011;36113;50.742;6.432;2023-06-14T10:24:30;5.75;;;2.15;;
50225;SDS011;36113;50.742;6.432;2023-06-14T10:26:57;3.72;;;2.35;;
50225;SDS011;36113;50.742;6.432;2023-06-14T10:29:23;2.95;;;1.65;;
50225;SDS011;36113;50.742;6.432;2023-06-14T10:31:49;3.67;;;1.97;;
50225;SDS011;36113;50.742;6.432;2023-06-14T10:34:22;5.47;;;2.22;;
50225;SDS011;36113;50.742;6.432;2023-06-14T10:37:11;2.97;;;1.95;;
50225;SDS011;36113;50.742;6.432;2023-06-14T10:42:06;5.95;;;2.30;;
50225;SDS011;36113;50.742;6.432;2023-06-14T10:44:32;3.50;;;1.88;;
50225;SDS011;36113;50.742;6.432;2023-06-14T10:47:29;2.67;;;1.90;;
50225;SDS011;36113;50.742;6.432;2023-06-14T10:52:33;5.18;;;2.03;;
50225;SDS011;36113;50.742;6.432;2023-06-14T10:55:01;2.72;;;2.10;;
50225;SDS011;36113;50.742;6.432;2023-06-14T10:57:29;2.58;;;2.03;;
50225;SDS011;36113;50.742;6.432;2023-06-14T10:59:57;3.90;;;1.75;;
50225;SDS011;36113;50.742;6.432;2023-06-14T11:02:42;1.95;;;1.65;;
50225;SDS011;36113;50.742;6.432;2023-06-14T11:05:16;1.88;;;1.77;;
50225;SDS011;36113;50.742;6.432;2023-06-14T11:10:53;2.38;;;1.77;;
50225;SDS011;36113;50.742;6.432;2023-06-14T11:13:19;2.05;;;1.70;;
50225;SDS011;36113;50.742;6.432;2023-06-14T11:15:50;2.78;;;2.38;;
50225;SDS011;36113;50.742;6.432;2023-06-14T11:18:17;4.30;;;2.03;;
50225;SDS011;36113;50.742;6.432;2023-06-14T11:20:45;2.07;;;1.97;;
50225;SDS011;36113;50.742;6.432;2023-06-14T11:23:11;2.45;;;1.65;;
50225;SDS011;36113;50.742;6.432;2023-06-14T11:25:36;3.97;;;2.00;;
50225;SDS011;36113;50.742;6.432;2023-06-14T11:28:02;2.60;;;1.70;;
50225;SDS011;36113;50.742;6.432;2023-06-14T11:30:27;2.00;;;1.80;;
50225;SDS011;36113;50.742;6.432;2023-06-14T11:32:53;8.40;;;1.83;;
50225;SDS011;36113;50.742;6.432;2023-06-14T11:35:19;4.57;;;2.00;;
50225;SDS011;36113;50.742;6.432;2023-06-14T11:37:48;2.15;;;1.90;;
50225;SDS011;36113;50.742;6.432;2023-06-14T11:40:14;3.15;;;1.88;;
50225;SDS011;36113;50.742;6.432;2023-06-14T11:42:40;2.40;;;2.20;;
50225;SDS011;36113;50.742;6.432;2023-06-14T11:45:10;7.07;;;1.85;;
50225;SDS011;36113;50.742;6.432;2023-06-14T11:47:37;2.65;;;1.80;;
50225;SDS011;36113;50.742;6.432;2023-06-14T11:50:05;3.47;;;1.80;;
50225;SDS011;36113;50.742;6.432;2023-06-14T11:52:31;2.75;;;2.25;;
50225;SDS011;36113;50.742;6.432;2023-06-14T11:54:57;2.13;;;1.92;;
50225;SDS011;36113;50.742;6.432;2023-06-14T11:57:23;2.80;;;2.17;;
50225;SDS011;36113;50.742;6.432;2023-06-14T11:59:49;2.22;;;1.77;;
50225;SDS011;36113;50.742;6.432;2023-06-14T12:02:18;6.47;;;1.67;;
50225;SDS011;36113;50.742;6.432;2023-06-14T12:04:47;4.10;;;1.80;;
50225;SDS011;36113;50.742;6.432;2023-06-14T12:07:14;2.88;;;2.20;;
50225;SDS011;36113;50.742;6.432;2023-06-14T12:10:26;2.38;;;2.20;;
50225;SDS011;36113;50.742;6.432;2023-06-14T12:12:26;1.95;;;1.85;;
50225;SDS011;36113;50.742;6.432;2023-06-14T12:14:52;2.53;;;1.70;;
50225;SDS011;36113;50.742;6.432;2023-06-14T12:19:44;3.92;;;1.80;;
50225;SDS011;36113;50.742;6.432;2023-06-14T12:22:11;2.85;;;1.92;;
50225;SDS011;36113;50.742;6.432;2023-06-14T12:24:37;2.17;;;1.98;;
50225;SDS011;36113;50.742;6.432;2023-06-14T12:27:04;5.90;;;2.10;;
50225;SDS011;36113;50.742;6.432;2023-06-14T12:29:30;2.03;;;1.90;;
50225;SDS011;36113;50.742;6.432;2023-06-14T12:31:56;2.80;;;2.10;;
50225;SDS011;36113;50.742;6.432;2023-06-14T12:34:22;2.40;;;1.92;;
50225;SDS011;36113;50.742;6.432;2023-06-14T12:36:49;10.05;;;2.70;;
50225;SDS011;36113;50.742;6.432;2023-06-14T12:39:15;4.13;;;2.08;;
50225;SDS011;36113;50.742;6.432;2023-06-14T12:41:41;2.00;;;1.90;;
50225;SDS011;36113;50.742;6.432;2023-06-14T12:44:07;2.37;;;2.20;;
50225;SDS011;36113;50.742;6.432;2023-06-14T12:46:32;2.93;;;1.80;;
50225;SDS011;36113;50.742;6.432;2023-06-14T12:48:58;4.38;;;1.85;;
50225;SDS011;36113;50.742;6.432;2023-06-14T12:51:23;2.17;;;1.90;;
50225;SDS011;36113;50.742;6.432;2023-06-14T12:53:50;2.17;;;2.00;;
50225;SDS011;36113;50.742;6.432;2023-06-14T12:56:15;5.60;;;1.77;;
50225;SDS011;36113;50.742;6.432;2023-06-14T12:58:41;2.40;;;2.30;;
50225;SDS011;36113;50.742;6.432;2023-06-14T13:01:07;1.88;;;1.77;;
50225;SDS011;36113;50.742;6.432;2023-06-14T13:03:32;6.43;;;1.93;;
50225;SDS011;36113;50.742;6.432;2023-06-14T13:08:24;2.92;;;2.22;;
50225;SDS011;36113;50.742;6.432;2023-06-14T13:10:49;2.43;;;2.23;;
50225;SDS011;36113;50.742;6.432;2023-06-14T13:13:15;5.97;;;2.10;;
50225;SDS011;36113;50.742;6.432;2023-06-14T13:15:40;2.37;;;2.20;;
50225;SDS011;36113;50.742;6.432;2023-06-14T13:18:05;3.10;;;2.80;;
50225;SDS011;36113;50.742;6.432;2023-06-14T13:20:31;2.57;;;1.80;;
50225;SDS011;36113;50.742;6.432;2023-06-14T13:22:56;4.43;;;2.03;;
50225;SDS011;36113;50.742;6.432;2023-06-14T13:25:22;3.60;;;2.37;;
50225;SDS011;36113;50.742;6.432;2023-06-14T13:27:47;2.50;;;2.30;;
50225;SDS011;36113;50.742;6.432;2023-06-14T13:30:13;2.50;;;2.38;;
50225;SDS011;36113;50.742;6.432;2023-06-14T13:32:38;6.40;;;2.07;;
50225;SDS011;36113;50.742;6.432;2023-06-14T13:35:04;3.53;;;2.03;;
50225;SDS011;36113;50.742;6.432;2023-06-14T13:37:29;7.00;;;1.90;;
50225;SDS011;36113;50.742;6.432;2023-06-14T13:39:55;2.23;;;1.70;;
50225;SDS011;36113;50.742;6.432;2023-06-14T13:42:20;4.93;;;1.70;;
50225;SDS011;36113;50.742;6.432;2023-06-14T13:44:45;4.63;;;1.80;;
50225;SDS011;36113;50.742;6.432;2023-06-14T13:47:11;2.97;;;2.17;;
50225;SDS011;36113;50.742;6.432;2023-06-14T13:49:37;5.00;;;1.90;;
50225;SDS011;36113;50.742;6.432;2023-06-14T13:52:02;2.50;;;2.30;;
50225;SDS011;36113;50.742;6.432;2023-06-14T13:54:28;4.50;;;2.33;;
50225;SDS011;36113;50.742;6.432;2023-06-14T13:56:53;2.40;;;2.17;;
50225;SDS011;36113;50.742;6.432;2023-06-14T13:59:19;3.25;;;2.10;;
50225;SDS011;36113;50.742;6.432;2023-06-14T14:01:45;10.53;;;2.30;;
50225;SDS011;36113;50.742;6.432;2023-06-14T14:04:10;2.03;;;1.87;;
50225;SDS011;36113;50.742;6.432;2023-06-14T14:06:36;7.78;;;2.03;;
50225;SDS011;36113;50.742;6.432;2023-06-14T14:09:01;5.43;;;2.03;;
50225;SDS011;36113;50.742;6.432;2023-06-14T14:11:26;4.17;;;2.20;;
50225;SDS011;36113;50.742;6.432;2023-06-14T14:13:53;2.38;;;2.00;;
50225;SDS011;36113;50.742;6.432;2023-06-14T14:16:18;1.90;;;1.80;;
50225;SDS011;36113;50.742;6.432;2023-06-14T14:18:45;5.03;;;2.25;;
50225;SDS011;36113;50.742;6.432;2023-06-14T14:21:11;2.28;;;1.98;;
50225;SDS011;36113;50.742;6.432;2023-06-14T14:23:36;2.30;;;1.53;;
50225;SDS011;36113;50.742;6.432;2023-06-14T14:26:02;2.00;;;1.90;;
50225;SDS011;36113;50.742;6.432;2023-06-14T14:28:29;8.88;;;2.53;;
50225;SDS011;36113;50.742;6.432;2023-06-14T14:30:55;1.90;;;1.73;;
50225;SDS011;36113;50.742;6.432;2023-06-14T14:33:20;1.50;;;1.50;;
50225;SDS011;36113;50.742;6.432;2023-06-14T14:35:46;2.10;;;1.90;;
50225;SDS011;36113;50.742;6.432;2023-06-14T14:38:12;4.80;;;1.73;;
50225;SDS011;36113;50.742;6.432;2023-06-14T14:40:39;1.90;;;1.73;;
50225;SDS011;36113;50.742;6.432;2023-06-14T14:43:05;3.80;;;1.95;;
50225;SDS011;36113;50.742;6.432;2023-06-14T14:45:30;2.07;;;1.67;;
50225;SDS011;36113;50.742;6.432;2023-06-14T14:47:56;2.22;;;1.60;;
50225;SDS011;36113;50.742;6.432;2023-06-14T14:50:21;1.60;;;1.50;;
50225;SDS011;36113;50.742;6.432;2023-06-14T14:52:47;1.67;;;1.67;;
50225;SDS011;36113;50.742;6.432;2023-06-14T14:55:12;7.50;;;1.73;;
50225;SDS011;36113;50.742;6.432;2023-06-14T14:57:38;3.35;;;1.30;;
50225;SDS011;36113;50.742;6.432;2023-06-14T15:00:03;1.40;;;1.40;;
50225;SDS011;36113;50.742;6.432;2023-06-14T15:02:30;10.82;;;1.80;;
50225;SDS011;36113;50.742;6.432;2023-06-14T15:04:56;1.43;;;1.33;;
50225;SDS011;36113;50.742;6.432;2023-06-14T15:07:25;2.33;;;1.30;;
50225;SDS011;36113;50.742;6.432;2023-06-14T15:09:51;3.25;;;1.33;;
50225;SDS011;36113;50.742;6.432;2023-06-14T15:12:17;1.37;;;1.27;;
50225;SDS011;36113;50.742;6.432;2023-06-14T15:14:42;2.33;;;1.47;;
50225;SDS011;36113;50.742;6.432;2023-06-14T15:17:07;3.77;;;1.53;;